sensor_id;sensor_type;location;lat;lon;timestamp;temperature;humidity
69595;DHT22;56800;52.142;5.364;2023-10-13T00:02:10;17.80;85.60
69595;DHT22;56800;52.142;5.364;2023-10-13T00:04:37;17.80;85.70
69595;DHT22;56800;52.142;5.364;2023-10-13T00:07:04;17.80;85.80
69595;DHT22;56800;52.142;5.364;2023-10-13T00:09:35;17.80;85.80
69595;DHT22;56800;52.142;5.364;2023-10-13T00:12:07;17.80;85.80
69595;DHT22;56800;52.142;5.364;2023-10-13T00:14:40;17.80;85.80
69595;DHT22;56800;52.142;5.364;2023-10-13T00:17:08;17.80;85.70
69595;DHT22;56800;52.142;5.364;2023-10-13T00:19:38;17.80;85.70
69595;DHT22;56800;52.142;5.364;2023-10-13T00:22:12;17.80;85.80
69595;DHT22;56800;52.142;5.364;2023-10-13T00:24:43;17.80;85.80
69595;DHT22;56800;52.142;5.364;2023-10-13T00:27:14;17.80;86.00
69595;DHT22;56800;52.142;5.364;2023-10-13T00:30:01;17.80;85.90
69595;DHT22;56800;52.142;5.364;2023-10-13T00:32:48;17.80;85.90
69595;DHT22;56800;52.142;5.364;2023-10-13T00:35:27;17.80;85.80
69595;DHT22;56800;52.142;5.364;2023-10-13T00:38:04;17.80;85.80
69595;DHT22;56800;52.142;5.364;2023-10-13T00:40:32;17.80;85.80
69595;DHT22;56800;52.142;5.364;2023-10-13T00:43:00;17.80;85.80
69595;DHT22;56800;52.142;5.364;2023-10-13T00:45:55;17.80;85.90
69595;DHT22;56800;52.142;5.364;2023-10-13T00:48:28;17.80;85.80
69595;DHT22;56800;52.142;5.364;2023-10-13T00:51:01;17.80;85.80
69595;DHT22;56800;52.142;5.364;2023-10-13T00:53:34;17.80;85.80
69595;DHT22;56800;52.142;5.364;2023-10-13T00:56:07;17.70;85.90
69595;DHT22;56800;52.142;5.364;2023-10-13T00:58:35;17.80;85.90
69595;DHT22;56800;52.142;5.364;2023-10-13T01:01:02;17.80;85.90
69595;DHT22;56800;52.142;5.364;2023-10-13T01:03:50;17.80;85.90
69595;DHT22;56800;52.142;5.364;2023-10-13T01:06:22;17.80;85.90
69595;DHT22;56800;52.142;5.364;2023-10-13T01:09:00;17.80;85.90
69595;DHT22;56800;52.142;5.364;2023-10-13T01:11:45;17.70;85.90
69595;DHT22;56800;52.142;5.364;2023-10-13T01:14:15;17.70;85.90
69595;DHT22;56800;52.142;5.364;2023-10-13T01:16:44;17.70;85.90
69595;DHT22;56800;52.142;5.364;2023-10-13T01:19:15;17.80;86.20
69595;DHT22;56800;52.142;5.364;2023-10-13T01:21:50;17.70;86.00
69595;DHT22;56800;52.142;5.364;2023-10-13T01:24:22;17.80;86.00
69595;DHT22;56800;52.142;5.364;2023-10-13T01:26:52;17.80;86.10
69595;DHT22;56800;52.142;5.364;2023-10-13T01:29:19;17.80;86.10
69595;DHT22;56800;52.142;5.364;2023-10-13T01:31:46;17.70;85.90
69595;DHT22;56800;52.142;5.364;2023-10-13T01:34:17;17.70;85.90
69595;DHT22;56800;52.142;5.364;2023-10-13T01:36:52;17.70;86.10
69595;DHT22;56800;52.142;5.364;2023-10-13T01:39:21;17.70;86.00
69595;DHT22;56800;52.142;5.364;2023-10-13T01:41:48;17.70;86.10
69595;DHT22;56800;52.142;5.364;2023-10-13T01:44:26;17.70;86.10
69595;DHT22;56800;52.142;5.364;2023-10-13T01:46:54;17.70;86.10
69595;DHT22;56800;52.142;5.364;2023-10-13T01:49:21;17.70;86.10
69595;DHT22;56800;52.142;5.364;2023-10-13T01:51:49;17.70;86.10
69595;DHT22;56800;52.142;5.364;2023-10-13T01:54:16;17.70;86.10
69595;DHT22;56800;52.142;5.364;2023-10-13T01:56:42;17.70;86.10
69595;DHT22;56800;52.142;5.364;2023-10-13T01:59:12;17.80;86.10
69595;DHT22;56800;52.142;5.364;2023-10-13T02:01:40;17.70;86.10
69595;DHT22;56800;52.142;5.364;2023-10-13T02:04:08;17.70;86.10
69595;DHT22;56800;52.142;5.364;2023-10-13T02:06:37;17.70;86.10
69595;DHT22;56800;52.142;5.364;2023-10-13T02:09:08;17.70;86.10
69595;DHT22;56800;52.142;5.364;2023-10-13T02:11:44;17.70;86.10
69595;DHT22;56800;52.142;5.364;2023-10-13T02:14:13;17.70;86.10
69595;DHT22;56800;52.142;5.364;2023-10-13T02:16:44;17.70;86.10
69595;DHT22;56800;52.142;5.364;2023-10-13T02:19:14;17.70;86.20
69595;DHT22;56800;52.142;5.364;2023-10-13T02:21:42;17.70;86.10
69595;DHT22;56800;52.142;5.364;2023-10-13T02:24:11;17.70;86.10
69595;DHT22;56800;52.142;5.364;2023-10-13T02:26:45;17.70;86.10
69595;DHT22;56800;52.142;5.364;2023-10-13T02:29:12;17.70;86.00
69595;DHT22;56800;52.142;5.364;2023-10-13T02:31:42;17.70;86.10
69595;DHT22;56800;52.142;5.364;2023-10-13T02:34:09;17.70;86.10
69595;DHT22;56800;52.142;5.364;2023-10-13T02:36:36;17.70;86.10
69595;DHT22;56800;52.142;5.364;2023-10-13T02:39:17;17.70;86.10
69595;DHT22;56800;52.142;5.364;2023-10-13T02:41:44;17.60;86.10
69595;DHT22;56800;52.142;5.364;2023-10-13T02:44:15;17.60;86.10
69595;DHT22;56800;52.142;5.364;2023-10-13T02:46:54;17.60;86.10
69595;DHT22;56800;52.142;5.364;2023-10-13T02:49:26;17.60;86.10
69595;DHT22;56800;52.142;5.364;2023-10-13T02:51:54;17.70;86.20
69595;DHT22;56800;52.142;5.364;2023-10-13T02:54:26;17.60;86.10
69595;DHT22;56800;52.142;5.364;2023-10-13T02:56:58;17.60;86.10
69595;DHT22;56800;52.142;5.364;2023-10-13T02:59:27;17.60;86.00
69595;DHT22;56800;52.142;5.364;2023-10-13T03:02:08;17.60;86.10
69595;DHT22;56800;52.142;5.364;2023-10-13T03:04:47;17.60;86.10
69595;DHT22;56800;52.142;5.364;2023-10-13T03:07:14;17.60;86.90
69595;DHT22;56800;52.142;5.364;2023-10-13T03:09:42;17.60;86.10
69595;DHT22;56800;52.142;5.364;2023-10-13T03:12:20;17.60;86.10
69595;DHT22;56800;52.142;5.364;2023-10-13T03:14:47;17.70;86.20
69595;DHT22;56800;52.142;5.364;2023-10-13T03:17:21;17.60;86.00
69595;DHT22;56800;52.142;5.364;2023-10-13T03:19:59;17.60;86.10
69595;DHT22;56800;52.142;5.364;2023-10-13T03:22:26;17.60;86.00
69595;DHT22;56800;52.142;5.364;2023-10-13T03:24:59;17.60;86.10
69595;DHT22;56800;52.142;5.364;2023-10-13T03:27:31;17.60;86.10
69595;DHT22;56800;52.142;5.364;2023-10-13T03:30:15;17.70;86.20
69595;DHT22;56800;52.142;5.364;2023-10-13T03:32:43;17.60;86.00
69595;DHT22;56800;52.142;5.364;2023-10-13T03:35:15;17.60;86.10
69595;DHT22;56800;52.142;5.364;2023-10-13T03:37:51;17.60;86.10
69595;DHT22;56800;52.142;5.364;2023-10-13T03:40:19;17.60;86.10
69595;DHT22;56800;52.142;5.364;2023-10-13T03:42:53;17.50;86.10
69595;DHT22;56800;52.142;5.364;2023-10-13T03:45:27;17.50;86.20
69595;DHT22;56800;52.142;5.364;2023-10-13T03:47:53;17.50;86.20
69595;DHT22;56800;52.142;5.364;2023-10-13T03:50:20;17.50;86.20
69595;DHT22;56800;52.142;5.364;2023-10-13T03:52:58;17.50;86.20
69595;DHT22;56800;52.142;5.364;2023-10-13T03:55:25;17.50;86.20
69595;DHT22;56800;52.142;5.364;2023-10-13T03:57:56;17.50;86.20
69595;DHT22;56800;52.142;5.364;2023-10-13T04:00:26;17.50;86.20
69595;DHT22;56800;52.142;5.364;2023-10-13T04:02:55;17.50;86.20
69595;DHT22;56800;52.142;5.364;2023-10-13T04:05:42;17.50;86.30
69595;DHT22;56800;52.142;5.364;2023-10-13T04:08:12;17.50;86.30
69595;DHT22;56800;52.142;5.364;2023-10-13T04:10:55;17.50;86.30
69595;DHT22;56800;52.142;5.364;2023-10-13T04:13:22;17.50;86.30
69595;DHT22;56800;52.142;5.364;2023-10-13T04:16:08;17.50;86.30
69595;DHT22;56800;52.142;5.364;2023-10-13T04:18:50;17.50;86.30
69595;DHT22;56800;52.142;5.364;2023-10-13T04:21:37;17.50;86.30
69595;DHT22;56800;52.142;5.364;2023-10-13T04:24:10;17.50;86.40
69595;DHT22;56800;52.142;5.364;2023-10-13T04:26:44;17.50;86.30
69595;DHT22;56800;52.142;5.364;2023-10-13T04:29:29;17.40;86.30
69595;DHT22;56800;52.142;5.364;2023-10-13T04:32:12;17.40;86.40
69595;DHT22;56800;52.142;5.364;2023-10-13T04:34:56;17.50;86.40
69595;DHT22;56800;52.142;5.364;2023-10-13T04:37:28;17.50;86.40
69595;DHT22;56800;52.142;5.364;2023-10-13T04:40:01;17.40;86.40
69595;DHT22;56800;52.142;5.364;2023-10-13T04:42:36;17.40;86.40
69595;DHT22;56800;52.142;5.364;2023-10-13T04:45:17;17.40;86.60
69595;DHT22;56800;52.142;5.364;2023-10-13T04:48:05;17.40;86.70
69595;DHT22;56800;52.142;5.364;2023-10-13T04:50:46;17.40;86.70
69595;DHT22;56800;52.142;5.364;2023-10-13T04:53:14;17.40;86.70
69595;DHT22;56800;52.142;5.364;2023-10-13T04:56:00;17.40;86.70
69595;DHT22;56800;52.142;5.364;2023-10-13T04:58:30;17.40;86.80
69595;DHT22;56800;52.142;5.364;2023-10-13T05:01:03;17.40;86.90
69595;DHT22;56800;52.142;5.364;2023-10-13T05:03:50;17.40;87.70
69595;DHT22;56800;52.142;5.364;2023-10-13T05:06:35;17.50;87.20
69595;DHT22;56800;52.142;5.364;2023-10-13T05:09:12;17.50;87.30
69595;DHT22;56800;52.142;5.364;2023-10-13T05:11:58;17.50;87.20
69595;DHT22;56800;52.142;5.364;2023-10-13T05:14:44;17.50;87.40
69595;DHT22;56800;52.142;5.364;2023-10-13T05:17:29;17.50;87.50
69595;DHT22;56800;52.142;5.364;2023-10-13T05:20:15;17.50;87.60
69595;DHT22;56800;52.142;5.364;2023-10-13T05:23:00;17.60;87.80
69595;DHT22;56800;52.142;5.364;2023-10-13T05:25:45;17.60;87.90
69595;DHT22;56800;52.142;5.364;2023-10-13T05:28:31;17.60;88.00
69595;DHT22;56800;52.142;5.364;2023-10-13T05:31:16;17.70;88.20
69595;DHT22;56800;52.142;5.364;2023-10-13T05:34:02;17.70;88.20
69595;DHT22;56800;52.142;5.364;2023-10-13T05:36:47;17.70;88.30
69595;DHT22;56800;52.142;5.364;2023-10-13T05:39:32;17.80;88.40
69595;DHT22;56800;52.142;5.364;2023-10-13T05:42:18;17.80;88.40
69595;DHT22;56800;52.142;5.364;2023-10-13T05:45:04;17.80;88.40
69595;DHT22;56800;52.142;5.364;2023-10-13T05:47:43;17.80;88.20
69595;DHT22;56800;52.142;5.364;2023-10-13T05:50:10;17.80;88.00
69595;DHT22;56800;52.142;5.364;2023-10-13T05:52:49;17.80;88.60
69595;DHT22;56800;52.142;5.364;2023-10-13T05:55:29;17.80;87.60
69595;DHT22;56800;52.142;5.364;2023-10-13T05:58:16;17.80;87.40
69595;DHT22;56800;52.142;5.364;2023-10-13T06:01:01;17.80;87.30
69595;DHT22;56800;52.142;5.364;2023-10-13T06:03:47;17.80;87.30
69595;DHT22;56800;52.142;5.364;2023-10-13T06:06:32;17.80;87.10
69595;DHT22;56800;52.142;5.364;2023-10-13T06:09:17;17.80;87.00
69595;DHT22;56800;52.142;5.364;2023-10-13T06:12:03;17.80;86.90
69595;DHT22;56800;52.142;5.364;2023-10-13T06:15:08;17.80;86.90
69595;DHT22;56800;52.142;5.364;2023-10-13T06:17:54;17.80;86.90
69595;DHT22;56800;52.142;5.364;2023-10-13T06:20:41;17.80;86.70
69595;DHT22;56800;52.142;5.364;2023-10-13T06:23:26;17.80;86.80
69595;DHT22;56800;52.142;5.364;2023-10-13T06:26:11;17.80;86.80
69595;DHT22;56800;52.142;5.364;2023-10-13T06:28:57;17.80;86.70
69595;DHT22;56800;52.142;5.364;2023-10-13T06:31:24;17.80;86.70
69595;DHT22;56800;52.142;5.364;2023-10-13T06:33:53;17.80;86.70
69595;DHT22;56800;52.142;5.364;2023-10-13T06:36:22;17.80;86.80
69595;DHT22;56800;52.142;5.364;2023-10-13T06:41:24;17.90;86.80
69595;DHT22;56800;52.142;5.364;2023-10-13T06:43:58;17.90;86.80
69595;DHT22;56800;52.142;5.364;2023-10-13T06:46:28;17.90;86.80
69595;DHT22;56800;52.142;5.364;2023-10-13T06:48:56;17.90;86.80
69595;DHT22;56800;52.142;5.364;2023-10-13T06:51:29;17.90;86.80
69595;DHT22;56800;52.142;5.364;2023-10-13T06:54:05;17.90;86.90
69595;DHT22;56800;52.142;5.364;2023-10-13T06:56:38;17.90;86.90
69595;DHT22;56800;52.142;5.364;2023-10-13T06:59:08;17.90;87.00
69595;DHT22;56800;52.142;5.364;2023-10-13T07:01:52;17.90;87.00
69595;DHT22;56800;52.142;5.364;2023-10-13T07:05:38;17.90;87.90
69595;DHT22;56800;52.142;5.364;2023-10-13T07:13:23;18.00;87.50
69595;DHT22;56800;52.142;5.364;2023-10-13T07:20:08;18.00;87.80
69595;DHT22;56800;52.142;5.364;2023-10-13T07:22:42;18.00;87.90
69595;DHT22;56800;52.142;5.364;2023-10-13T07:25:24;18.10;88.10
69595;DHT22;56800;52.142;5.364;2023-10-13T07:27:55;18.10;88.10
69595;DHT22;56800;52.142;5.364;2023-10-13T07:30:24;18.10;88.10
69595;DHT22;56800;52.142;5.364;2023-10-13T07:32:54;18.20;88.40
69595;DHT22;56800;52.142;5.364;2023-10-13T07:35:23;18.20;88.40
69595;DHT22;56800;52.142;5.364;2023-10-13T07:37:51;18.20;88.40
69595;DHT22;56800;52.142;5.364;2023-10-13T07:40:22;18.20;88.40
69595;DHT22;56800;52.142;5.364;2023-10-13T07:42:56;18.30;88.40
69595;DHT22;56800;52.142;5.364;2023-10-13T07:45:39;18.30;88.40
69595;DHT22;56800;52.142;5.364;2023-10-13T07:48:11;18.30;88.20
69595;DHT22;56800;52.142;5.364;2023-10-13T07:50:39;18.30;88.20
69595;DHT22;56800;52.142;5.364;2023-10-13T07:53:31;18.30;88.10
69595;DHT22;56800;52.142;5.364;2023-10-13T07:57:34;18.40;88.10
69595;DHT22;56800;52.142;5.364;2023-10-13T08:00:53;18.40;88.10
69595;DHT22;56800;52.142;5.364;2023-10-13T08:03:41;18.40;88.00
69595;DHT22;56800;52.142;5.364;2023-10-13T08:06:16;18.40;88.00
69595;DHT22;56800;52.142;5.364;2023-10-13T08:08:47;18.40;88.00
69595;DHT22;56800;52.142;5.364;2023-10-13T08:11:17;18.50;88.10
69595;DHT22;56800;52.142;5.364;2023-10-13T08:13:54;18.50;88.70
69595;DHT22;56800;52.142;5.364;2023-10-13T08:16:36;18.50;87.80
69595;DHT22;56800;52.142;5.364;2023-10-13T08:19:14;18.60;87.60
69595;DHT22;56800;52.142;5.364;2023-10-13T08:21:45;18.60;87.50
69595;DHT22;56800;52.142;5.364;2023-10-13T08:24:26;18.60;87.40
69595;DHT22;56800;52.142;5.364;2023-10-13T08:27:14;18.60;87.40
69595;DHT22;56800;52.142;5.364;2023-10-13T08:29:42;18.70;87.40
69595;DHT22;56800;52.142;5.364;2023-10-13T08:32:22;18.70;87.30
69595;DHT22;56800;52.142;5.364;2023-10-13T08:35:03;18.70;87.10
69595;DHT22;56800;52.142;5.364;2023-10-13T08:37:31;18.70;87.00
69595;DHT22;56800;52.142;5.364;2023-10-13T08:40:16;18.70;86.90
69595;DHT22;56800;52.142;5.364;2023-10-13T08:43:03;18.80;86.70
69595;DHT22;56800;52.142;5.364;2023-10-13T08:45:36;18.80;86.50
69595;DHT22;56800;52.142;5.364;2023-10-13T08:48:03;18.80;86.40
69595;DHT22;56800;52.142;5.364;2023-10-13T08:50:52;18.90;86.30
69595;DHT22;56800;52.142;5.364;2023-10-13T08:53:21;18.80;86.10
69595;DHT22;56800;52.142;5.364;2023-10-13T08:56:00;18.90;86.00
69595;DHT22;56800;52.142;5.364;2023-10-13T08:58:47;18.90;85.70
69595;DHT22;56800;52.142;5.364;2023-10-13T09:04:14;18.90;85.30
69595;DHT22;56800;52.142;5.364;2023-10-13T09:06:59;18.90;85.00
69595;DHT22;56800;52.142;5.364;2023-10-13T09:09:44;19.00;84.60
69595;DHT22;56800;52.142;5.364;2023-10-13T09:12:22;19.00;84.40
69595;DHT22;56800;52.142;5.364;2023-10-13T09:17:50;19.00;84.10
69595;DHT22;56800;52.142;5.364;2023-10-13T09:20:19;19.10;84.10
69595;DHT22;56800;52.142;5.364;2023-10-13T09:23:10;19.00;84.10
69595;DHT22;56800;52.142;5.364;2023-10-13T09:25:39;19.00;84.10
69595;DHT22;56800;52.142;5.364;2023-10-13T09:28:20;19.10;83.90
69595;DHT22;56800;52.142;5.364;2023-10-13T09:30:53;19.10;83.90
69595;DHT22;56800;52.142;5.364;2023-10-13T09:33:22;19.10;84.00
69595;DHT22;56800;52.142;5.364;2023-10-13T09:35:59;19.10;83.90
69595;DHT22;56800;52.142;5.364;2023-10-13T09:38:32;19.10;83.80
69595;DHT22;56800;52.142;5.364;2023-10-13T09:40:59;19.10;83.80
69595;DHT22;56800;52.142;5.364;2023-10-13T09:43:44;19.20;83.70
69595;DHT22;56800;52.142;5.364;2023-10-13T09:46:22;19.20;83.70
69595;DHT22;56800;52.142;5.364;2023-10-13T09:48:58;19.20;83.50
69595;DHT22;56800;52.142;5.364;2023-10-13T09:51:31;19.30;83.40
69595;DHT22;56800;52.142;5.364;2023-10-13T09:57:15;19.30;83.20
69595;DHT22;56800;52.142;5.364;2023-10-13T09:59:50;19.30;83.10
69595;DHT22;56800;52.142;5.364;2023-10-13T10:02:20;19.30;83.00
69595;DHT22;56800;52.142;5.364;2023-10-13T10:04:53;19.30;82.90
69595;DHT22;56800;52.142;5.364;2023-10-13T10:07:26;19.30;82.60
69595;DHT22;56800;52.142;5.364;2023-10-13T10:10:01;19.30;82.40
69595;DHT22;56800;52.142;5.364;2023-10-13T10:18:01;19.40;81.90
69595;DHT22;56800;52.142;5.364;2023-10-13T10:20:30;19.40;81.90
69595;DHT22;56800;52.142;5.364;2023-10-13T10:23:25;19.50;81.80
69595;DHT22;56800;52.142;5.364;2023-10-13T10:25:53;19.50;81.50
69595;DHT22;56800;52.142;5.364;2023-10-13T10:28:38;19.50;81.40
69595;DHT22;56800;52.142;5.364;2023-10-13T10:31:06;19.60;81.30
69595;DHT22;56800;52.142;5.364;2023-10-13T10:33:39;19.60;81.40
69595;DHT22;56800;52.142;5.364;2023-10-13T10:36:08;19.60;81.20
69595;DHT22;56800;52.142;5.364;2023-10-13T10:38:53;19.70;81.10
69595;DHT22;56800;52.142;5.364;2023-10-13T10:41:30;19.80;81.00
69595;DHT22;56800;52.142;5.364;2023-10-13T10:44:12;19.80;80.80
69595;DHT22;56800;52.142;5.364;2023-10-13T10:46:43;19.90;80.50
69595;DHT22;56800;52.142;5.364;2023-10-13T10:49:19;19.90;80.10
69595;DHT22;56800;52.142;5.364;2023-10-13T10:51:58;20.00;80.10
69595;DHT22;56800;52.142;5.364;2023-10-13T10:54:27;20.00;79.60
69595;DHT22;56800;52.142;5.364;2023-10-13T10:57:00;20.00;79.60
69595;DHT22;56800;52.142;5.364;2023-10-13T10:59:45;20.10;79.30
69595;DHT22;56800;52.142;5.364;2023-10-13T11:02:12;20.10;79.20
69595;DHT22;56800;52.142;5.364;2023-10-13T11:04:53;20.10;79.10
69595;DHT22;56800;52.142;5.364;2023-10-13T11:07:25;20.20;79.10
69595;DHT22;56800;52.142;5.364;2023-10-13T11:09:54;20.20;78.90
69595;DHT22;56800;52.142;5.364;2023-10-13T11:12:39;20.20;78.70
69595;DHT22;56800;52.142;5.364;2023-10-13T11:15:07;20.30;78.90
69595;DHT22;56800;52.142;5.364;2023-10-13T11:17:50;20.30;77.70
69595;DHT22;56800;52.142;5.364;2023-10-13T11:20:25;20.30;77.50
69595;DHT22;56800;52.142;5.364;2023-10-13T11:23:13;20.30;77.10
69595;DHT22;56800;52.142;5.364;2023-10-13T11:25:42;20.40;77.10
69595;DHT22;56800;52.142;5.364;2023-10-13T11:28:13;20.40;77.00
69595;DHT22;56800;52.142;5.364;2023-10-13T11:30:56;20.40;77.00
69595;DHT22;56800;52.142;5.364;2023-10-13T11:33:26;20.40;76.60
69595;DHT22;56800;52.142;5.364;2023-10-13T11:35:56;20.40;76.10
69595;DHT22;56800;52.142;5.364;2023-10-13T11:38:28;20.40;76.00
69595;DHT22;56800;52.142;5.364;2023-10-13T11:41:00;20.50;75.90
69595;DHT22;56800;52.142;5.364;2023-10-13T11:43:41;20.50;75.40
69595;DHT22;56800;52.142;5.364;2023-10-13T11:46:22;20.50;75.00
69595;DHT22;56800;52.142;5.364;2023-10-13T11:49:10;20.60;75.10
69595;DHT22;56800;52.142;5.364;2023-10-13T11:51:44;20.60;74.60
69595;DHT22;56800;52.142;5.364;2023-10-13T11:54:15;20.70;74.30
69595;DHT22;56800;52.142;5.364;2023-10-13T11:56:42;20.70;74.30
69595;DHT22;56800;52.142;5.364;2023-10-13T11:59:09;20.70;74.50
69595;DHT22;56800;52.142;5.364;2023-10-13T12:01:49;20.70;74.50
69595;DHT22;56800;52.142;5.364;2023-10-13T12:04:35;20.70;73.70
69595;DHT22;56800;52.142;5.364;2023-10-13T12:07:22;20.70;73.30
69595;DHT22;56800;52.142;5.364;2023-10-13T12:10:08;20.80;74.10
69595;DHT22;56800;52.142;5.364;2023-10-13T12:12:42;20.90;73.20
69595;DHT22;56800;52.142;5.364;2023-10-13T12:15:11;20.80;72.30
69595;DHT22;56800;52.142;5.364;2023-10-13T12:17:52;20.80;72.40
69595;DHT22;56800;52.142;5.364;2023-10-13T12:20:19;20.80;72.20
69595;DHT22;56800;52.142;5.364;2023-10-13T12:23:00;20.90;71.90
69595;DHT22;56800;52.142;5.364;2023-10-13T12:25:37;20.90;71.60
69595;DHT22;56800;52.142;5.364;2023-10-13T12:28:22;20.90;71.80
69595;DHT22;56800;52.142;5.364;2023-10-13T12:30:50;21.00;71.80
69595;DHT22;56800;52.142;5.364;2023-10-13T12:33:20;20.90;71.90
69595;DHT22;56800;52.142;5.364;2023-10-13T12:36:07;21.00;71.70
69595;DHT22;56800;52.142;5.364;2023-10-13T12:38:57;21.00;71.70
69595;DHT22;56800;52.142;5.364;2023-10-13T12:41:29;21.00;71.30
69595;DHT22;56800;52.142;5.364;2023-10-13T12:44:29;21.00;71.40
69595;DHT22;56800;52.142;5.364;2023-10-13T12:47:16;21.00;71.20
69595;DHT22;56800;52.142;5.364;2023-10-13T12:50:01;21.00;71.40
69595;DHT22;56800;52.142;5.364;2023-10-13T12:52:39;21.00;71.00
69595;DHT22;56800;52.142;5.364;2023-10-13T12:55:05;21.00;71.00
69595;DHT22;56800;52.142;5.364;2023-10-13T12:57:33;21.00;71.10
69595;DHT22;56800;52.142;5.364;2023-10-13T13:00:00;21.00;71.00
69595;DHT22;56800;52.142;5.364;2023-10-13T13:02:29;21.00;70.70
69595;DHT22;56800;52.142;5.364;2023-10-13T13:04:57;21.00;71.00
69595;DHT22;56800;52.142;5.364;2023-10-13T13:07:29;21.00;71.00
69595;DHT22;56800;52.142;5.364;2023-10-13T13:09:56;21.00;71.00
69595;DHT22;56800;52.142;5.364;2023-10-13T13:12:26;21.00;71.00
69595;DHT22;56800;52.142;5.364;2023-10-13T13:14:56;21.00;71.20
69595;DHT22;56800;52.142;5.364;2023-10-13T13:17:22;21.00;71.50
69595;DHT22;56800;52.142;5.364;2023-10-13T13:19:49;21.00;71.70
69595;DHT22;56800;52.142;5.364;2023-10-13T13:22:16;20.90;71.80
69595;DHT22;56800;52.142;5.364;2023-10-13T13:24:44;20.90;72.00
69595;DHT22;56800;52.142;5.364;2023-10-13T13:27:12;20.90;72.10
69595;DHT22;56800;52.142;5.364;2023-10-13T13:29:46;20.80;72.10
69595;DHT22;56800;52.142;5.364;2023-10-13T13:32:13;20.80;72.40
69595;DHT22;56800;52.142;5.364;2023-10-13T13:34:51;20.70;72.70
69595;DHT22;56800;52.142;5.364;2023-10-13T13:37:31;20.70;72.80
69595;DHT22;56800;52.142;5.364;2023-10-13T13:39:58;20.60;72.90
69595;DHT22;56800;52.142;5.364;2023-10-13T13:42:41;20.60;73.10
69595;DHT22;56800;52.142;5.364;2023-10-13T13:45:17;20.60;73.40
69595;DHT22;56800;52.142;5.364;2023-10-13T13:47:56;20.50;73.80
69595;DHT22;56800;52.142;5.364;2023-10-13T13:50:24;20.40;73.70
69595;DHT22;56800;52.142;5.364;2023-10-13T13:52:52;20.40;74.00
69595;DHT22;56800;52.142;5.364;2023-10-13T13:55:25;20.40;74.30
69595;DHT22;56800;52.142;5.364;2023-10-13T13:57:56;20.30;74.60
69595;DHT22;56800;52.142;5.364;2023-10-13T14:00:23;20.20;74.80
69595;DHT22;56800;52.142;5.364;2023-10-13T14:03:06;20.20;75.20
69595;DHT22;56800;52.142;5.364;2023-10-13T14:05:43;20.10;75.20
69595;DHT22;56800;52.142;5.364;2023-10-13T14:08:10;20.10;75.20
69595;DHT22;56800;52.142;5.364;2023-10-13T14:10:41;20.00;75.40
69595;DHT22;56800;52.142;5.364;2023-10-13T14:13:27;20.00;75.70
69595;DHT22;56800;52.142;5.364;2023-10-13T14:16:17;20.00;76.00
69595;DHT22;56800;52.142;5.364;2023-10-13T14:18:45;19.90;76.30
69595;DHT22;56800;52.142;5.364;2023-10-13T14:21:12;19.80;76.60
69595;DHT22;56800;52.142;5.364;2023-10-13T14:23:47;19.80;77.10
69595;DHT22;56800;52.142;5.364;2023-10-13T14:26:15;19.70;77.50
69595;DHT22;56800;52.142;5.364;2023-10-13T14:28:47;19.60;77.70
69595;DHT22;56800;52.142;5.364;2023-10-13T14:31:32;19.50;77.90
69595;DHT22;56800;52.142;5.364;2023-10-13T14:33:59;19.50;78.50
69595;DHT22;56800;52.142;5.364;2023-10-13T14:36:25;19.40;78.60
69595;DHT22;56800;52.142;5.364;2023-10-13T14:38:56;19.40;79.00
69595;DHT22;56800;52.142;5.364;2023-10-13T14:41:23;19.40;79.10
69595;DHT22;56800;52.142;5.364;2023-10-13T14:43:49;19.30;79.30
69595;DHT22;56800;52.142;5.364;2023-10-13T14:46:20;19.30;79.50
69595;DHT22;56800;52.142;5.364;2023-10-13T14:48:53;19.30;79.80
69595;DHT22;56800;52.142;5.364;2023-10-13T14:51:21;19.20;80.00
69595;DHT22;56800;52.142;5.364;2023-10-13T14:53:48;19.20;80.20
69595;DHT22;56800;52.142;5.364;2023-10-13T14:56:18;19.20;80.30
69595;DHT22;56800;52.142;5.364;2023-10-13T14:58:45;19.20;80.50
69595;DHT22;56800;52.142;5.364;2023-10-13T15:01:17;19.20;80.60
69595;DHT22;56800;52.142;5.364;2023-10-13T15:03:50;19.20;80.70
69595;DHT22;56800;52.142;5.364;2023-10-13T15:06:18;19.20;80.90
69595;DHT22;56800;52.142;5.364;2023-10-13T15:08:47;19.10;80.90
69595;DHT22;56800;52.142;5.364;2023-10-13T15:11:15;19.10;81.10
69595;DHT22;56800;52.142;5.364;2023-10-13T15:13:45;19.20;81.30
69595;DHT22;56800;52.142;5.364;2023-10-13T15:16:19;19.10;81.40
69595;DHT22;56800;52.142;5.364;2023-10-13T15:18:47;19.10;81.40
69595;DHT22;56800;52.142;5.364;2023-10-13T15:21:28;19.10;81.60
69595;DHT22;56800;52.142;5.364;2023-10-13T15:24:02;19.10;81.70
69595;DHT22;56800;52.142;5.364;2023-10-13T15:26:44;19.10;81.80
69595;DHT22;56800;52.142;5.364;2023-10-13T15:29:18;19.00;81.80
69595;DHT22;56800;52.142;5.364;2023-10-13T15:31:51;19.10;82.00
69595;DHT22;56800;52.142;5.364;2023-10-13T15:34:28;19.10;82.00
69595;DHT22;56800;52.142;5.364;2023-10-13T15:36:56;19.00;82.10
69595;DHT22;56800;52.142;5.364;2023-10-13T15:39:24;19.00;82.20
69595;DHT22;56800;52.142;5.364;2023-10-13T15:41:55;19.00;82.40
69595;DHT22;56800;52.142;5.364;2023-10-13T15:44:26;19.00;82.50
69595;DHT22;56800;52.142;5.364;2023-10-13T15:46:58;19.00;82.60
69595;DHT22;56800;52.142;5.364;2023-10-13T15:49:29;19.00;82.70
69595;DHT22;56800;52.142;5.364;2023-10-13T15:51:57;19.00;82.70
69595;DHT22;56800;52.142;5.364;2023-10-13T15:54:24;18.90;82.80
69595;DHT22;56800;52.142;5.364;2023-10-13T15:56:51;18.90;83.00
69595;DHT22;56800;52.142;5.364;2023-10-13T15:59:18;18.90;83.10
69595;DHT22;56800;52.142;5.364;2023-10-13T16:01:44;18.90;83.10
69595;DHT22;56800;52.142;5.364;2023-10-13T16:04:13;18.90;83.20
69595;DHT22;56800;52.142;5.364;2023-10-13T16:06:42;18.90;83.30
69595;DHT22;56800;52.142;5.364;2023-10-13T16:09:14;18.90;83.30
69595;DHT22;56800;52.142;5.364;2023-10-13T16:11:44;18.90;83.30
69595;DHT22;56800;52.142;5.364;2023-10-13T16:14:13;18.90;83.40
69595;DHT22;56800;52.142;5.364;2023-10-13T16:16:45;18.90;83.50
69595;DHT22;56800;52.142;5.364;2023-10-13T16:19:16;18.90;83.50
69595;DHT22;56800;52.142;5.364;2023-10-13T16:21:44;18.90;83.50
69595;DHT22;56800;52.142;5.364;2023-10-13T16:24:12;18.90;83.60
69595;DHT22;56800;52.142;5.364;2023-10-13T16:26:47;18.90;83.50
69595;DHT22;56800;52.142;5.364;2023-10-13T16:29:23;18.90;83.60
69595;DHT22;56800;52.142;5.364;2023-10-13T16:31:49;18.90;83.50
69595;DHT22;56800;52.142;5.364;2023-10-13T16:34:18;18.90;83.50
69595;DHT22;56800;52.142;5.364;2023-10-13T16:36:45;18.90;83.50
69595;DHT22;56800;52.142;5.364;2023-10-13T16:39:13;18.90;83.60
69595;DHT22;56800;52.142;5.364;2023-10-13T16:41:49;18.90;83.60
69595;DHT22;56800;52.142;5.364;2023-10-13T16:44:18;18.90;83.60
69595;DHT22;56800;52.142;5.364;2023-10-13T16:46:45;18.90;83.60